Hauptseite
METAR-TAF:

METAR-TAF

Flughäfen :

Flughafen Brüssel-Zaventem

Brüssel, Belgien

Breite: 50-54N, Länge: 004-32E, Höhe: 55 m

Beobachtung

Neuester Wetterbericht von vor 30 Minuten, um 12:50 UTC
Wind 9 kt aus West, variierte zwischen Südwest und West/Nordwest
Temperatur 25°C
Luftfeuchtigkeit 41%
Luftdruck 1016 hPa
Sichtweite 10 km oder mehr
keine Wolken unter 1500 m und keine Kumulonimbus oder Gewitterwolken

METAR: EBBR 171250Z 26009KT 220V290 CAVOK 25/11 Q1016 NOSIG

Zeit: 15:20 (13:20 UTC)

Prognose

Neuester Wetterbericht von vor 2 Stunden und 20 Minuten, um 11:00 UTC
Gültige Prognose vom 17 um 12 UTC bis 18 um 18 UTC
Wind 6 kt aus West/Nordwest
Sichtweite 10 km oder mehr
keine Wolken unter 1500 m und keine Kumulonimbus oder Gewitterwolken

TAF: EBBR 171100Z 1712/1818 29006KT CAVOK

Wetterbeobachtungen und Prognosen von mehr als 4000 Flughäfen (METAR und TAF Bericht).

Die verfügbaren Stationen werden durch gelbe und rote Markierungen auf der Karte dargestellt.

Führen Sie die Maus auf sie, um den Namen der Station zu sehen.

Darauf klicken, um die Beobachtung von Wetterbeobachtungen und Prognosen zu sehen.

Um die Karte zu ändern : klicken Sie auf den grünen Tasten mit einem schwarzen Kreuz Zum Vergrößern, auf den grünen Button mit einem Gedankenstrich zu verkleinern, oder auf die grünen Pfeile für benachbarte Karten.


METAR-TAF: